Tapachula Airport, Mexico

7:53 PM CDT on August 31, 2015 (GMT -0500)
Tapachula International | | Change Station
CLOSE
Current Station
Airport
Location: Tapachula Airport,
Elevation: 95 ft
Nearby Weather Stations

Elev 95 ft 14.79 °N, 92.37 °W | Updated 1 hour ago

Mostly Cloudy
Mostly Cloudy
82 °F
Feels Like 92 °F
N
6
Wind Variable Wind from North

Today
High -- | Low -- °F
--% Chance of Precip.
Yesterday
High -- | Low -- °F
Precip. -- in
6:56 AM 7:22 PM
Waning Gibbous, 92% visible
Pressure 29.83 in
Visibility 10.0 miles
Clouds Scattered Clouds 3000 ft
Mostly Cloudy 10000 ft
Heat Index 92 °F
Dew Point 79 °F
Humidity 89%
Rainfall 0.00 in
Snow Depth Not available.
UV 0 out of 12
Pollen Not available.
Air Quality Not available.
Flu Activity Not available.
METAR MMTP 312349Z 36005KT 10SM SCT030TCU BKN100 28/26 A2987 RMK SLP102 52003 907 8/250
Pressure 29.83 in
Visibility 10.0 miles
Clouds Scattered Clouds 3000 ft
Mostly Cloudy 10000 ft
Heat Index 92 °F
Dew Point 79 °F
Humidity 89%
Rainfall 0.00 in
Snow Depth Not available.
UV 0 out of 12
Pollen Not available.
Air Quality Not available.
Flu Activity Not available.
METAR MMTP 312349Z 36005KT 10SM SCT030TCU BKN100 28/26 A2987 RMK SLP102 52003 907 8/250

10-Day Weather Forecast

×

Almanac

Astronomy

Aug. 31, 2015 Rise Set
Actual Time
Civil Twilight
Nautical Twilight
Astronomical Twilight
Moon
Length of Visible Light
Length of Day
Tomorrow will be .
, % of the Moon is Illuminated

Today's Extremes

Country Highs Country Lows

Community

WunderPhotos

Upload Photos

1,851,411 photos uploaded!

WunderBlogs® & News

Nearby

Air Quality

  Air Quality AQ Index Pollutant
Not available.

Snow Depth

Station Depth Elevation

Earthquake Activity

City Distance Mag. Time & Date
Minimum magnitude displayed is 2.5.

Coastal Water Temperatures

Place Temperature

Stations

Nearby Weather Stations

Station Location Temp. Windchill Dew Point Humidity Wind Precip. Elev Updated Type